sensor_id;sensor_type;location;lat;lon;timestamp;P1;durP1;ratioP1;P2;durP2;ratioP2
5841;SDS011;2947;52.276;9.946;2022-08-05T00:01:01;5.65;;;3.20;;
5841;SDS011;2947;52.276;9.946;2022-08-05T00:03:35;9.93;;;3.97;;
5841;SDS011;2947;52.276;9.946;2022-08-05T00:06:01;10.77;;;4.07;;
5841;SDS011;2947;52.276;9.946;2022-08-05T00:08:27;5.65;;;3.80;;
5841;SDS011;2947;52.276;9.946;2022-08-05T00:10:52;8.80;;;3.53;;
5841;SDS011;2947;52.276;9.946;2022-08-05T00:13:18;8.45;;;3.42;;
5841;SDS011;2947;52.276;9.946;2022-08-05T00:15:44;7.28;;;3.13;;
5841;SDS011;2947;52.276;9.946;2022-08-05T00:18:10;5.45;;;3.33;;
5841;SDS011;2947;52.276;9.946;2022-08-05T00:20:36;6.20;;;3.72;;
5841;SDS011;2947;52.276;9.946;2022-08-05T00:23:01;6.43;;;3.50;;
5841;SDS011;2947;52.276;9.946;2022-08-05T00:25:27;11.40;;;3.97;;
5841;SDS011;2947;52.276;9.946;2022-08-05T00:27:53;9.75;;;3.40;;
5841;SDS011;2947;52.276;9.946;2022-08-05T00:30:19;7.15;;;3.20;;
5841;SDS011;2947;52.276;9.946;2022-08-05T00:32:44;9.55;;;4.15;;
5841;SDS011;2947;52.276;9.946;2022-08-05T00:35:10;14.63;;;4.00;;
5841;SDS011;2947;52.276;9.946;2022-08-05T00:37:36;12.45;;;4.13;;
5841;SDS011;2947;52.276;9.946;2022-08-05T00:40:02;7.28;;;3.50;;
5841;SDS011;2947;52.276;9.946;2022-08-05T00:42:32;7.10;;;4.43;;
5841;SDS011;2947;52.276;9.946;2022-08-05T00:45:01;10.27;;;4.32;;
5841;SDS011;2947;52.276;9.946;2022-08-05T00:47:29;8.88;;;4.90;;
5841;SDS011;2947;52.276;9.946;2022-08-05T00:49:55;7.13;;;4.63;;
5841;SDS011;2947;52.276;9.946;2022-08-05T00:52:21;9.38;;;5.50;;
5841;SDS011;2947;52.276;9.946;2022-08-05T00:54:47;17.63;;;5.68;;
5841;SDS011;2947;52.276;9.946;2022-08-05T00:57:13;14.68;;;5.55;;
5841;SDS011;2947;52.276;9.946;2022-08-05T00:59:39;13.52;;;6.10;;
5841;SDS011;2947;52.276;9.946;2022-08-05T01:02:05;10.45;;;5.53;;
5841;SDS011;2947;52.276;9.946;2022-08-05T01:04:31;15.45;;;5.90;;
5841;SDS011;2947;52.276;9.946;2022-08-05T01:06:56;16.00;;;5.90;;
5841;SDS011;2947;52.276;9.946;2022-08-05T01:09:22;12.30;;;6.97;;
5841;SDS011;2947;52.276;9.946;2022-08-05T01:11:49;16.00;;;7.20;;
5841;SDS011;2947;52.276;9.946;2022-08-05T01:17:05;20.75;;;7.82;;
5841;SDS011;2947;52.276;9.946;2022-08-05T01:19:49;17.65;;;7.35;;
5841;SDS011;2947;52.276;9.946;2022-08-05T01:22:34;17.20;;;9.02;;
5841;SDS011;2947;52.276;9.946;2022-08-05T01:25:42;18.15;;;9.35;;
5841;SDS011;2947;52.276;9.946;2022-08-05T01:29:20;14.77;;;9.00;;
5841;SDS011;2947;52.276;9.946;2022-08-05T01:31:58;19.83;;;10.38;;
5841;SDS011;2947;52.276;9.946;2022-08-05T01:34:30;23.30;;;9.80;;
5841;SDS011;2947;52.276;9.946;2022-08-05T01:37:08;26.17;;;11.07;;
5841;SDS011;2947;52.276;9.946;2022-08-05T01:39:40;18.45;;;10.20;;
5841;SDS011;2947;52.276;9.946;2022-08-05T01:42:12;19.77;;;9.85;;
5841;SDS011;2947;52.276;9.946;2022-08-05T01:44:40;19.23;;;10.45;;
5841;SDS011;2947;52.276;9.946;2022-08-05T01:47:08;18.75;;;9.52;;
5841;SDS011;2947;52.276;9.946;2022-08-05T01:49:35;17.30;;;10.13;;
5841;SDS011;2947;52.276;9.946;2022-08-05T01:52:04;19.58;;;10.50;;
5841;SDS011;2947;52.276;9.946;2022-08-05T01:54:32;24.83;;;11.02;;
5841;SDS011;2947;52.276;9.946;2022-08-05T01:57:17;20.27;;;10.50;;
5841;SDS011;2947;52.276;9.946;2022-08-05T01:59:53;27.55;;;10.95;;
5841;SDS011;2947;52.276;9.946;2022-08-05T02:02:23;21.92;;;10.38;;
5841;SDS011;2947;52.276;9.946;2022-08-05T02:04:51;26.67;;;10.60;;
5841;SDS011;2947;52.276;9.946;2022-08-05T02:07:18;39.35;;;12.35;;
5841;SDS011;2947;52.276;9.946;2022-08-05T02:09:45;26.45;;;12.40;;
5841;SDS011;2947;52.276;9.946;2022-08-05T02:12:16;31.83;;;10.55;;
5841;SDS011;2947;52.276;9.946;2022-08-05T02:15:11;21.77;;;10.85;;
5841;SDS011;2947;52.276;9.946;2022-08-05T02:17:44;23.45;;;11.18;;
5841;SDS011;2947;52.276;9.946;2022-08-05T02:20:21;21.23;;;11.25;;
5841;SDS011;2947;52.276;9.946;2022-08-05T02:23:02;24.77;;;12.10;;
5841;SDS011;2947;52.276;9.946;2022-08-05T02:25:34;23.67;;;10.65;;
5841;SDS011;2947;52.276;9.946;2022-08-05T02:28:01;22.20;;;10.00;;
5841;SDS011;2947;52.276;9.946;2022-08-05T02:30:30;22.60;;;11.05;;
5841;SDS011;2947;52.276;9.946;2022-08-05T02:33:02;27.30;;;10.70;;
5841;SDS011;2947;52.276;9.946;2022-08-05T02:35:29;20.98;;;10.40;;
5841;SDS011;2947;52.276;9.946;2022-08-05T02:37:59;17.13;;;10.23;;
5841;SDS011;2947;52.276;9.946;2022-08-05T02:40:26;19.20;;;10.43;;
5841;SDS011;2947;52.276;9.946;2022-08-05T02:42:53;25.98;;;10.52;;
5841;SDS011;2947;52.276;9.946;2022-08-05T02:45:20;20.67;;;11.02;;
5841;SDS011;2947;52.276;9.946;2022-08-05T02:47:48;25.83;;;10.35;;
5841;SDS011;2947;52.276;9.946;2022-08-05T02:50:16;21.52;;;11.40;;
5841;SDS011;2947;52.276;9.946;2022-08-05T02:52:43;23.48;;;12.57;;
5841;SDS011;2947;52.276;9.946;2022-08-05T02:55:10;24.23;;;12.27;;
5841;SDS011;2947;52.276;9.946;2022-08-05T02:57:38;29.50;;;13.00;;
5841;SDS011;2947;52.276;9.946;2022-08-05T03:00:05;22.58;;;12.80;;
5841;SDS011;2947;52.276;9.946;2022-08-05T03:02:33;23.75;;;11.98;;
5841;SDS011;2947;52.276;9.946;2022-08-05T03:05:04;25.48;;;13.02;;
5841;SDS011;2947;52.276;9.946;2022-08-05T03:07:34;28.50;;;13.55;;
5841;SDS011;2947;52.276;9.946;2022-08-05T03:10:01;26.80;;;11.98;;
5841;SDS011;2947;52.276;9.946;2022-08-05T03:12:28;28.50;;;13.23;;
5841;SDS011;2947;52.276;9.946;2022-08-05T03:15:02;26.52;;;13.27;;
5841;SDS011;2947;52.276;9.946;2022-08-05T03:17:30;29.67;;;12.80;;
5841;SDS011;2947;52.276;9.946;2022-08-05T03:19:56;36.97;;;12.63;;
5841;SDS011;2947;52.276;9.946;2022-08-05T03:22:22;29.77;;;12.63;;
5841;SDS011;2947;52.276;9.946;2022-08-05T03:24:48;37.45;;;14.07;;
5841;SDS011;2947;52.276;9.946;2022-08-05T03:27:16;21.67;;;13.85;;
5841;SDS011;2947;52.276;9.946;2022-08-05T03:29:43;31.80;;;14.80;;
5841;SDS011;2947;52.276;9.946;2022-08-05T03:32:09;32.15;;;15.40;;
5841;SDS011;2947;52.276;9.946;2022-08-05T03:34:36;27.95;;;15.23;;
5841;SDS011;2947;52.276;9.946;2022-08-05T03:37:02;31.13;;;15.20;;
5841;SDS011;2947;52.276;9.946;2022-08-05T03:39:29;41.63;;;15.07;;
5841;SDS011;2947;52.276;9.946;2022-08-05T03:41:56;30.83;;;14.52;;
5841;SDS011;2947;52.276;9.946;2022-08-05T03:44:22;32.90;;;16.35;;
5841;SDS011;2947;52.276;9.946;2022-08-05T03:46:49;33.03;;;16.00;;
5841;SDS011;2947;52.276;9.946;2022-08-05T03:49:15;29.58;;;15.40;;
5841;SDS011;2947;52.276;9.946;2022-08-05T03:51:42;35.28;;;14.70;;
5841;SDS011;2947;52.276;9.946;2022-08-05T03:57:00;31.63;;;15.02;;
5841;SDS011;2947;52.276;9.946;2022-08-05T03:59:32;30.70;;;15.65;;
5841;SDS011;2947;52.276;9.946;2022-08-05T04:02:05;36.03;;;14.90;;
5841;SDS011;2947;52.276;9.946;2022-08-05T04:04:32;26.65;;;13.77;;
5841;SDS011;2947;52.276;9.946;2022-08-05T04:06:59;33.90;;;15.10;;
5841;SDS011;2947;52.276;9.946;2022-08-05T04:09:25;31.52;;;14.80;;
5841;SDS011;2947;52.276;9.946;2022-08-05T04:11:53;29.48;;;14.63;;
5841;SDS011;2947;52.276;9.946;2022-08-05T04:14:20;26.65;;;14.18;;
5841;SDS011;2947;52.276;9.946;2022-08-05T04:16:46;24.90;;;13.77;;
5841;SDS011;2947;52.276;9.946;2022-08-05T04:19:14;24.75;;;13.20;;
5841;SDS011;2947;52.276;9.946;2022-08-05T04:21:40;30.20;;;13.48;;
5841;SDS011;2947;52.276;9.946;2022-08-05T04:24:06;37.97;;;15.10;;
5841;SDS011;2947;52.276;9.946;2022-08-05T04:26:32;25.77;;;13.80;;
5841;SDS011;2947;52.276;9.946;2022-08-05T04:28:59;27.52;;;14.57;;
5841;SDS011;2947;52.276;9.946;2022-08-05T04:31:25;31.55;;;14.95;;
5841;SDS011;2947;52.276;9.946;2022-08-05T04:33:50;38.03;;;14.65;;
5841;SDS011;2947;52.276;9.946;2022-08-05T04:36:16;24.70;;;14.15;;
5841;SDS011;2947;52.276;9.946;2022-08-05T04:38:42;29.02;;;14.73;;
5841;SDS011;2947;52.276;9.946;2022-08-05T04:41:08;29.08;;;14.43;;
5841;SDS011;2947;52.276;9.946;2022-08-05T04:43:34;36.85;;;15.48;;
5841;SDS011;2947;52.276;9.946;2022-08-05T04:46:01;29.85;;;15.00;;
5841;SDS011;2947;52.276;9.946;2022-08-05T04:48:28;31.92;;;15.13;;
5841;SDS011;2947;52.276;9.946;2022-08-05T04:50:54;28.55;;;14.55;;
5841;SDS011;2947;52.276;9.946;2022-08-05T04:53:20;28.77;;;14.20;;
5841;SDS011;2947;52.276;9.946;2022-08-05T04:55:46;33.55;;;15.07;;
5841;SDS011;2947;52.276;9.946;2022-08-05T04:58:13;30.35;;;13.55;;
5841;SDS011;2947;52.276;9.946;2022-08-05T05:00:40;35.35;;;14.88;;
5841;SDS011;2947;52.276;9.946;2022-08-05T05:03:07;29.88;;;12.88;;
5841;SDS011;2947;52.276;9.946;2022-08-05T05:05:34;33.20;;;14.60;;
5841;SDS011;2947;52.276;9.946;2022-08-05T05:08:01;27.20;;;11.90;;
5841;SDS011;2947;52.276;9.946;2022-08-05T05:10:36;26.73;;;12.52;;
5841;SDS011;2947;52.276;9.946;2022-08-05T05:13:12;34.45;;;14.10;;
5841;SDS011;2947;52.276;9.946;2022-08-05T05:15:41;29.27;;;12.63;;
5841;SDS011;2947;52.276;9.946;2022-08-05T05:18:08;27.05;;;13.93;;
5841;SDS011;2947;52.276;9.946;2022-08-05T05:20:38;28.20;;;14.55;;
5841;SDS011;2947;52.276;9.946;2022-08-05T05:23:04;29.67;;;15.73;;
5841;SDS011;2947;52.276;9.946;2022-08-05T05:25:30;35.33;;;16.88;;
5841;SDS011;2947;52.276;9.946;2022-08-05T05:27:55;35.70;;;17.10;;
5841;SDS011;2947;52.276;9.946;2022-08-05T05:30:21;35.25;;;17.63;;
5841;SDS011;2947;52.276;9.946;2022-08-05T05:32:47;29.30;;;16.50;;
5841;SDS011;2947;52.276;9.946;2022-08-05T05:35:13;35.45;;;18.08;;
5841;SDS011;2947;52.276;9.946;2022-08-05T05:37:54;34.13;;;19.17;;
5841;SDS011;2947;52.276;9.946;2022-08-05T05:40:24;37.22;;;18.58;;
5841;SDS011;2947;52.276;9.946;2022-08-05T05:42:52;39.40;;;19.23;;
5841;SDS011;2947;52.276;9.946;2022-08-05T05:45:18;35.95;;;18.98;;
5841;SDS011;2947;52.276;9.946;2022-08-05T05:47:45;26.63;;;15.88;;
5841;SDS011;2947;52.276;9.946;2022-08-05T05:50:13;37.65;;;19.33;;
5841;SDS011;2947;52.276;9.946;2022-08-05T05:52:40;36.15;;;18.58;;
5841;SDS011;2947;52.276;9.946;2022-08-05T05:55:09;30.23;;;19.48;;
5841;SDS011;2947;52.276;9.946;2022-08-05T05:57:37;34.45;;;20.13;;
5841;SDS011;2947;52.276;9.946;2022-08-05T06:00:05;40.03;;;19.95;;
5841;SDS011;2947;52.276;9.946;2022-08-05T06:02:33;36.58;;;20.70;;
5841;SDS011;2947;52.276;9.946;2022-08-05T06:05:00;35.15;;;18.35;;
5841;SDS011;2947;52.276;9.946;2022-08-05T06:07:26;29.25;;;17.98;;
5841;SDS011;2947;52.276;9.946;2022-08-05T06:09:51;35.72;;;18.50;;
5841;SDS011;2947;52.276;9.946;2022-08-05T06:12:17;31.33;;;17.42;;
5841;SDS011;2947;52.276;9.946;2022-08-05T06:14:43;29.90;;;17.80;;
5841;SDS011;2947;52.276;9.946;2022-08-05T06:17:09;32.53;;;18.58;;
5841;SDS011;2947;52.276;9.946;2022-08-05T06:19:36;31.27;;;19.27;;
5841;SDS011;2947;52.276;9.946;2022-08-05T06:22:02;39.15;;;19.13;;
5841;SDS011;2947;52.276;9.946;2022-08-05T06:24:29;29.92;;;18.90;;
5841;SDS011;2947;52.276;9.946;2022-08-05T06:26:56;30.38;;;14.52;;
5841;SDS011;2947;52.276;9.946;2022-08-05T06:29:21;19.42;;;11.70;;
5841;SDS011;2947;52.276;9.946;2022-08-05T06:31:47;26.13;;;11.48;;
5841;SDS011;2947;52.276;9.946;2022-08-05T06:34:13;20.88;;;10.85;;
5841;SDS011;2947;52.276;9.946;2022-08-05T06:36:39;21.05;;;10.55;;
5841;SDS011;2947;52.276;9.946;2022-08-05T06:39:04;21.23;;;11.52;;
5841;SDS011;2947;52.276;9.946;2022-08-05T06:41:30;23.83;;;11.38;;
5841;SDS011;2947;52.276;9.946;2022-08-05T06:43:56;18.40;;;10.48;;
5841;SDS011;2947;52.276;9.946;2022-08-05T06:46:22;21.35;;;10.60;;
5841;SDS011;2947;52.276;9.946;2022-08-05T06:48:48;27.40;;;12.20;;
5841;SDS011;2947;52.276;9.946;2022-08-05T06:51:13;18.02;;;10.65;;
5841;SDS011;2947;52.276;9.946;2022-08-05T06:53:39;17.98;;;9.93;;
5841;SDS011;2947;52.276;9.946;2022-08-05T06:56:05;24.88;;;12.05;;
5841;SDS011;2947;52.276;9.946;2022-08-05T06:58:31;20.70;;;10.73;;
5841;SDS011;2947;52.276;9.946;2022-08-05T07:00:57;18.55;;;9.60;;
5841;SDS011;2947;52.276;9.946;2022-08-05T07:03:25;17.75;;;11.25;;
5841;SDS011;2947;52.276;9.946;2022-08-05T07:05:51;18.42;;;11.80;;
5841;SDS011;2947;52.276;9.946;2022-08-05T07:08:17;28.90;;;11.07;;
5841;SDS011;2947;52.276;9.946;2022-08-05T07:10:43;24.08;;;11.77;;
5841;SDS011;2947;52.276;9.946;2022-08-05T07:13:08;25.05;;;12.85;;
5841;SDS011;2947;52.276;9.946;2022-08-05T07:15:52;22.77;;;10.48;;
5841;SDS011;2947;52.276;9.946;2022-08-05T07:18:37;17.90;;;10.90;;
5841;SDS011;2947;52.276;9.946;2022-08-05T07:21:04;20.55;;;11.20;;
5841;SDS011;2947;52.276;9.946;2022-08-05T07:23:30;23.33;;;10.82;;
5841;SDS011;2947;52.276;9.946;2022-08-05T07:25:55;22.73;;;12.65;;
5841;SDS011;2947;52.276;9.946;2022-08-05T07:28:21;24.35;;;13.00;;
5841;SDS011;2947;52.276;9.946;2022-08-05T07:30:47;27.42;;;13.70;;
5841;SDS011;2947;52.276;9.946;2022-08-05T07:33:13;19.50;;;12.60;;
5841;SDS011;2947;52.276;9.946;2022-08-05T07:35:39;21.48;;;13.10;;
5841;SDS011;2947;52.276;9.946;2022-08-05T07:38:05;20.48;;;12.77;;
5841;SDS011;2947;52.276;9.946;2022-08-05T07:40:31;23.83;;;13.93;;
5841;SDS011;2947;52.276;9.946;2022-08-05T07:42:56;19.95;;;12.45;;
5841;SDS011;2947;52.276;9.946;2022-08-05T07:45:22;18.27;;;12.68;;
5841;SDS011;2947;52.276;9.946;2022-08-05T07:47:48;17.05;;;11.27;;
5841;SDS011;2947;52.276;9.946;2022-08-05T07:50:14;19.38;;;12.70;;
5841;SDS011;2947;52.276;9.946;2022-08-05T07:52:40;22.52;;;13.40;;
5841;SDS011;2947;52.276;9.946;2022-08-05T07:55:07;18.45;;;13.13;;
5841;SDS011;2947;52.276;9.946;2022-08-05T07:57:35;22.77;;;13.45;;
5841;SDS011;2947;52.276;9.946;2022-08-05T08:00:02;16.17;;;11.93;;
5841;SDS011;2947;52.276;9.946;2022-08-05T08:02:29;21.83;;;11.88;;
5841;SDS011;2947;52.276;9.946;2022-08-05T08:04:55;19.15;;;11.27;;
5841;SDS011;2947;52.276;9.946;2022-08-05T08:07:22;17.05;;;11.23;;
5841;SDS011;2947;52.276;9.946;2022-08-05T08:09:47;17.00;;;11.13;;
5841;SDS011;2947;52.276;9.946;2022-08-05T08:12:15;19.02;;;13.75;;
5841;SDS011;2947;52.276;9.946;2022-08-05T08:14:41;19.20;;;11.70;;
5841;SDS011;2947;52.276;9.946;2022-08-05T08:17:07;20.38;;;11.20;;
5841;SDS011;2947;52.276;9.946;2022-08-05T08:19:40;16.58;;;9.40;;
5841;SDS011;2947;52.276;9.946;2022-08-05T08:22:08;17.13;;;8.57;;
5841;SDS011;2947;52.276;9.946;2022-08-05T08:24:34;11.55;;;8.18;;
5841;SDS011;2947;52.276;9.946;2022-08-05T08:27:01;17.00;;;7.10;;
5841;SDS011;2947;52.276;9.946;2022-08-05T08:29:28;9.65;;;7.13;;
5841;SDS011;2947;52.276;9.946;2022-08-05T08:31:53;11.93;;;6.85;;
5841;SDS011;2947;52.276;9.946;2022-08-05T08:34:20;13.50;;;7.78;;
5841;SDS011;2947;52.276;9.946;2022-08-05T08:36:48;16.05;;;10.10;;
5841;SDS011;2947;52.276;9.946;2022-08-05T08:39:15;22.33;;;12.68;;
5841;SDS011;2947;52.276;9.946;2022-08-05T08:41:42;22.60;;;10.80;;
5841;SDS011;2947;52.276;9.946;2022-08-05T08:44:12;16.80;;;9.23;;
5841;SDS011;2947;52.276;9.946;2022-08-05T08:46:39;10.93;;;8.82;;
5841;SDS011;2947;52.276;9.946;2022-08-05T08:49:06;12.02;;;8.73;;
5841;SDS011;2947;52.276;9.946;2022-08-05T08:51:33;13.95;;;8.77;;
5841;SDS011;2947;52.276;9.946;2022-08-05T08:54:01;18.00;;;9.43;;
5841;SDS011;2947;52.276;9.946;2022-08-05T08:56:27;13.25;;;8.88;;
5841;SDS011;2947;52.276;9.946;2022-08-05T08:58:53;17.30;;;9.13;;
5841;SDS011;2947;52.276;9.946;2022-08-05T09:01:19;13.23;;;9.52;;
5841;SDS011;2947;52.276;9.946;2022-08-05T09:03:45;16.38;;;11.05;;
5841;SDS011;2947;52.276;9.946;2022-08-05T09:06:13;14.32;;;9.38;;
5841;SDS011;2947;52.276;9.946;2022-08-05T09:08:40;14.25;;;9.65;;
5841;SDS011;2947;52.276;9.946;2022-08-05T09:11:06;26.73;;;13.88;;
5841;SDS011;2947;52.276;9.946;2022-08-05T09:13:33;25.70;;;18.23;;
5841;SDS011;2947;52.276;9.946;2022-08-05T09:16:00;23.20;;;17.42;;
5841;SDS011;2947;52.276;9.946;2022-08-05T09:18:27;25.48;;;18.17;;
5841;SDS011;2947;52.276;9.946;2022-08-05T09:20:53;29.83;;;18.20;;
5841;SDS011;2947;52.276;9.946;2022-08-05T09:23:19;26.52;;;15.38;;
5841;SDS011;2947;52.276;9.946;2022-08-05T09:25:49;18.83;;;12.13;;
5841;SDS011;2947;52.276;9.946;2022-08-05T09:28:21;21.00;;;13.38;;
5841;SDS011;2947;52.276;9.946;2022-08-05T09:30:52;20.52;;;17.60;;
5841;SDS011;2947;52.276;9.946;2022-08-05T09:33:21;29.58;;;21.73;;
5841;SDS011;2947;52.276;9.946;2022-08-05T09:35:57;24.80;;;18.35;;
5841;SDS011;2947;52.276;9.946;2022-08-05T09:38:32;20.75;;;15.40;;
5841;SDS011;2947;52.276;9.946;2022-08-05T09:41:02;22.85;;;12.85;;
5841;SDS011;2947;52.276;9.946;2022-08-05T09:45:58;16.77;;;13.50;;
5841;SDS011;2947;52.276;9.946;2022-08-05T09:48:24;25.25;;;16.77;;
5841;SDS011;2947;52.276;9.946;2022-08-05T09:50:54;28.88;;;18.75;;
5841;SDS011;2947;52.276;9.946;2022-08-05T09:53:51;20.77;;;15.90;;
5841;SDS011;2947;52.276;9.946;2022-08-05T09:56:27;19.02;;;12.82;;
5841;SDS011;2947;52.276;9.946;2022-08-05T09:58:58;19.02;;;13.60;;
5841;SDS011;2947;52.276;9.946;2022-08-05T10:01:38;20.27;;;14.98;;
5841;SDS011;2947;52.276;9.946;2022-08-05T10:04:08;18.05;;;13.27;;
5841;SDS011;2947;52.276;9.946;2022-08-05T10:06:41;14.75;;;11.70;;
5841;SDS011;2947;52.276;9.946;2022-08-05T10:09:19;18.10;;;13.15;;
5841;SDS011;2947;52.276;9.946;2022-08-05T10:11:46;16.85;;;12.10;;
5841;SDS011;2947;52.276;9.946;2022-08-05T10:14:25;16.67;;;12.32;;
5841;SDS011;2947;52.276;9.946;2022-08-05T10:16:56;16.27;;;11.20;;
5841;SDS011;2947;52.276;9.946;2022-08-05T10:19:37;16.77;;;11.75;;
5841;SDS011;2947;52.276;9.946;2022-08-05T10:22:03;15.75;;;12.18;;
5841;SDS011;2947;52.276;9.946;2022-08-05T10:24:31;17.83;;;11.65;;
5841;SDS011;2947;52.276;9.946;2022-08-05T10:26:57;15.73;;;11.50;;
5841;SDS011;2947;52.276;9.946;2022-08-05T10:29:24;14.05;;;12.00;;
5841;SDS011;2947;52.276;9.946;2022-08-05T10:31:51;14.82;;;12.18;;
5841;SDS011;2947;52.276;9.946;2022-08-05T10:34:17;12.88;;;10.25;;
5841;SDS011;2947;52.276;9.946;2022-08-05T10:36:44;14.20;;;10.45;;
5841;SDS011;2947;52.276;9.946;2022-08-05T10:39:13;13.63;;;9.57;;
5841;SDS011;2947;52.276;9.946;2022-08-05T10:41:52;12.75;;;9.90;;
5841;SDS011;2947;52.276;9.946;2022-08-05T10:44:26;14.82;;;9.63;;
5841;SDS011;2947;52.276;9.946;2022-08-05T10:46:54;14.68;;;11.00;;
5841;SDS011;2947;52.276;9.946;2022-08-05T10:49:21;33.10;;;13.55;;
5841;SDS011;2947;52.276;9.946;2022-08-05T10:51:50;17.00;;;12.25;;
5841;SDS011;2947;52.276;9.946;2022-08-05T10:54:21;14.38;;;8.20;;
5841;SDS011;2947;52.276;9.946;2022-08-05T10:56:50;9.90;;;7.68;;
5841;SDS011;2947;52.276;9.946;2022-08-05T10:59:27;8.20;;;5.35;;
5841;SDS011;2947;52.276;9.946;2022-08-05T11:02:05;5.57;;;4.63;;
5841;SDS011;2947;52.276;9.946;2022-08-05T11:04:42;13.45;;;4.93;;
5841;SDS011;2947;52.276;9.946;2022-08-05T11:07:10;6.45;;;4.30;;
5841;SDS011;2947;52.276;9.946;2022-08-05T11:09:46;11.80;;;3.83;;
5841;SDS011;2947;52.276;9.946;2022-08-05T11:13:02;6.30;;;2.92;;
5841;SDS011;2947;52.276;9.946;2022-08-05T11:17:48;9.07;;;3.40;;
5841;SDS011;2947;52.276;9.946;2022-08-05T11:20:32;6.38;;;2.90;;
5841;SDS011;2947;52.276;9.946;2022-08-05T11:22:58;5.47;;;2.95;;
5841;SDS011;2947;52.276;9.946;2022-08-05T11:25:37;6.45;;;2.70;;
5841;SDS011;2947;52.276;9.946;2022-08-05T11:33:26;6.55;;;2.47;;
5841;SDS011;2947;52.276;9.946;2022-08-05T11:36:02;6.22;;;3.25;;
5841;SDS011;2947;52.276;9.946;2022-08-05T11:44:08;7.10;;;3.70;;
5841;SDS011;2947;52.276;9.946;2022-08-05T11:49:13;3.95;;;3.00;;
5841;SDS011;2947;52.276;9.946;2022-08-05T11:51:41;5.85;;;3.83;;
5841;SDS011;2947;52.276;9.946;2022-08-05T11:54:13;8.35;;;4.78;;
5841;SDS011;2947;52.276;9.946;2022-08-05T11:56:52;10.35;;;4.82;;
5841;SDS011;2947;52.276;9.946;2022-08-05T11:59:21;8.45;;;4.63;;
5841;SDS011;2947;52.276;9.946;2022-08-05T12:02:00;5.75;;;3.90;;
5841;SDS011;2947;52.276;9.946;2022-08-05T12:07:12;9.43;;;5.50;;
5841;SDS011;2947;52.276;9.946;2022-08-05T12:10:02;9.30;;;4.18;;
5841;SDS011;2947;52.276;9.946;2022-08-05T12:12:27;8.68;;;4.03;;
5841;SDS011;2947;52.276;9.946;2022-08-05T12:14:53;9.95;;;4.53;;
5841;SDS011;2947;52.276;9.946;2022-08-05T12:17:20;8.52;;;4.68;;
5841;SDS011;2947;52.276;9.946;2022-08-05T12:19:52;6.47;;;3.97;;
5841;SDS011;2947;52.276;9.946;2022-08-05T12:22:20;7.78;;;4.22;;
5841;SDS011;2947;52.276;9.946;2022-08-05T12:24:51;6.88;;;4.38;;
5841;SDS011;2947;52.276;9.946;2022-08-05T12:27:24;5.90;;;4.38;;
5841;SDS011;2947;52.276;9.946;2022-08-05T12:32:42;9.50;;;3.80;;
5841;SDS011;2947;52.276;9.946;2022-08-05T12:35:10;7.10;;;4.55;;
5841;SDS011;2947;52.276;9.946;2022-08-05T12:37:39;5.20;;;4.18;;
5841;SDS011;2947;52.276;9.946;2022-08-05T12:40:07;5.25;;;4.00;;
5841;SDS011;2947;52.276;9.946;2022-08-05T12:42:34;7.57;;;3.85;;
5841;SDS011;2947;52.276;9.946;2022-08-05T12:45:07;5.40;;;4.05;;
5841;SDS011;2947;52.276;9.946;2022-08-05T12:47:34;6.60;;;3.17;;
5841;SDS011;2947;52.276;9.946;2022-08-05T12:50:14;5.55;;;3.25;;
5841;SDS011;2947;52.276;9.946;2022-08-05T12:52:41;3.75;;;3.38;;
5841;SDS011;2947;52.276;9.946;2022-08-05T12:55:21;9.05;;;4.03;;
5841;SDS011;2947;52.276;9.946;2022-08-05T12:57:50;4.63;;;3.90;;
5841;SDS011;2947;52.276;9.946;2022-08-05T13:00:19;7.75;;;4.45;;
5841;SDS011;2947;52.276;9.946;2022-08-05T13:02:49;6.85;;;4.85;;
5841;SDS011;2947;52.276;9.946;2022-08-05T13:05:17;5.95;;;4.28;;
5841;SDS011;2947;52.276;9.946;2022-08-05T13:07:44;5.63;;;4.93;;
5841;SDS011;2947;52.276;9.946;2022-08-05T13:10:11;5.78;;;4.40;;
5841;SDS011;2947;52.276;9.946;2022-08-05T13:12:40;7.30;;;4.53;;
5841;SDS011;2947;52.276;9.946;2022-08-05T13:15:10;5.00;;;3.97;;
5841;SDS011;2947;52.276;9.946;2022-08-05T13:17:38;3.85;;;3.42;;
5841;SDS011;2947;52.276;9.946;2022-08-05T13:20:07;3.45;;;3.00;;
5841;SDS011;2947;52.276;9.946;2022-08-05T13:22:42;4.88;;;2.97;;
5841;SDS011;2947;52.276;9.946;2022-08-05T13:25:13;5.32;;;3.03;;
5841;SDS011;2947;52.276;9.946;2022-08-05T13:27:47;9.00;;;3.20;;
5841;SDS011;2947;52.276;9.946;2022-08-05T13:30:16;3.72;;;2.97;;
5841;SDS011;2947;52.276;9.946;2022-08-05T13:32:51;3.17;;;2.00;;
5841;SDS011;2947;52.276;9.946;2022-08-05T13:35:17;2.80;;;2.20;;
5841;SDS011;2947;52.276;9.946;2022-08-05T13:37:44;4.40;;;2.45;;
5841;SDS011;2947;52.276;9.946;2022-08-05T13:40:11;3.85;;;2.58;;
5841;SDS011;2947;52.276;9.946;2022-08-05T13:42:38;3.00;;;2.20;;
5841;SDS011;2947;52.276;9.946;2022-08-05T13:45:04;3.03;;;2.50;;
5841;SDS011;2947;52.276;9.946;2022-08-05T13:47:31;3.70;;;2.70;;
5841;SDS011;2947;52.276;9.946;2022-08-05T13:50:04;9.93;;;2.85;;
5841;SDS011;2947;52.276;9.946;2022-08-05T13:52:31;5.32;;;3.55;;
5841;SDS011;2947;52.276;9.946;2022-08-05T13:54:57;7.28;;;4.10;;
5841;SDS011;2947;52.276;9.946;2022-08-05T13:57:23;3.80;;;2.53;;
5841;SDS011;2947;52.276;9.946;2022-08-05T13:59:49;4.22;;;2.78;;
5841;SDS011;2947;52.276;9.946;2022-08-05T14:02:15;3.67;;;1.95;;
5841;SDS011;2947;52.276;9.946;2022-08-05T14:04:43;3.00;;;2.15;;
5841;SDS011;2947;52.276;9.946;2022-08-05T14:07:30;4.30;;;2.70;;
5841;SDS011;2947;52.276;9.946;2022-08-05T14:10:02;3.90;;;2.50;;
5841;SDS011;2947;52.276;9.946;2022-08-05T14:12:50;5.32;;;2.85;;
5841;SDS011;2947;52.276;9.946;2022-08-05T14:15:16;3.72;;;2.70;;
5841;SDS011;2947;52.276;9.946;2022-08-05T14:17:43;4.75;;;3.00;;
5841;SDS011;2947;52.276;9.946;2022-08-05T14:20:09;4.97;;;3.00;;
5841;SDS011;2947;52.276;9.946;2022-08-05T14:22:35;4.97;;;3.20;;
5841;SDS011;2947;52.276;9.946;2022-08-05T14:25:01;5.55;;;3.22;;
5841;SDS011;2947;52.276;9.946;2022-08-05T14:27:28;4.85;;;3.15;;
5841;SDS011;2947;52.276;9.946;2022-08-05T14:29:54;3.38;;;3.08;;
5841;SDS011;2947;52.276;9.946;2022-08-05T14:32:20;4.40;;;3.08;;
5841;SDS011;2947;52.276;9.946;2022-08-05T14:34:45;5.63;;;2.50;;
5841;SDS011;2947;52.276;9.946;2022-08-05T14:37:11;5.57;;;2.70;;
5841;SDS011;2947;52.276;9.946;2022-08-05T14:39:37;6.32;;;2.53;;
5841;SDS011;2947;52.276;9.946;2022-08-05T14:42:02;5.45;;;2.60;;
5841;SDS011;2947;52.276;9.946;2022-08-05T14:44:28;3.88;;;2.17;;
5841;SDS011;2947;52.276;9.946;2022-08-05T14:46:54;5.10;;;2.40;;
5841;SDS011;2947;52.276;9.946;2022-08-05T14:49:20;4.82;;;2.90;;
5841;SDS011;2947;52.276;9.946;2022-08-05T14:51:45;3.92;;;2.30;;
5841;SDS011;2947;52.276;9.946;2022-08-05T14:54:11;5.75;;;2.70;;
5841;SDS011;2947;52.276;9.946;2022-08-05T14:56:37;4.57;;;2.67;;
5841;SDS011;2947;52.276;9.946;2022-08-05T14:59:03;4.72;;;2.80;;
5841;SDS011;2947;52.276;9.946;2022-08-05T15:01:29;7.15;;;2.92;;
5841;SDS011;2947;52.276;9.946;2022-08-05T15:03:54;5.68;;;3.55;;
5841;SDS011;2947;52.276;9.946;2022-08-05T15:06:20;7.43;;;4.03;;
5841;SDS011;2947;52.276;9.946;2022-08-05T15:08:46;8.10;;;4.78;;
5841;SDS011;2947;52.276;9.946;2022-08-05T15:11:12;4.00;;;3.45;;
5841;SDS011;2947;52.276;9.946;2022-08-05T15:13:37;11.02;;;4.38;;
5841;SDS011;2947;52.276;9.946;2022-08-05T15:16:03;5.40;;;3.90;;
5841;SDS011;2947;52.276;9.946;2022-08-05T15:18:30;5.97;;;4.20;;
5841;SDS011;2947;52.276;9.946;2022-08-05T15:20:58;5.30;;;3.85;;
5841;SDS011;2947;52.276;9.946;2022-08-05T15:23:24;5.35;;;3.28;;
5841;SDS011;2947;52.276;9.946;2022-08-05T15:25:49;6.88;;;2.80;;
5841;SDS011;2947;52.276;9.946;2022-08-05T15:28:15;4.07;;;3.30;;
5841;SDS011;2947;52.276;9.946;2022-08-05T15:30:42;5.97;;;2.80;;
5841;SDS011;2947;52.276;9.946;2022-08-05T15:33:09;5.78;;;2.60;;
5841;SDS011;2947;52.276;9.946;2022-08-05T15:35:35;2.80;;;1.92;;
5841;SDS011;2947;52.276;9.946;2022-08-05T15:38:00;3.20;;;2.15;;